sensor_id;sensor_type;location;lat;lon;timestamp;pressure;altitude;pressure_sealevel;temperature;humidity
75549;BME280;64133;56.002;37.208;2023-05-07T00:00:01;100077.22;;;-0.98;67.79
75549;BME280;64133;56.002;37.208;2023-05-07T00:05:07;100078.13;;;-1.01;67.91
75549;BME280;64133;56.002;37.208;2023-05-07T00:10:12;100080.36;;;-1.04;68.08
75549;BME280;64133;56.002;37.208;2023-05-07T00:15:17;100079.63;;;-1.10;68.19
75549;BME280;64133;56.002;37.208;2023-05-07T00:20:21;100082.27;;;-1.12;68.40
75549;BME280;64133;56.002;37.208;2023-05-07T00:25:26;100081.48;;;-1.15;68.54
75549;BME280;64133;56.002;37.208;2023-05-07T00:30:30;100087.22;;;-1.22;68.72
75549;BME280;64133;56.002;37.208;2023-05-07T00:35:35;100085.16;;;-1.25;68.98
75549;BME280;64133;56.002;37.208;2023-05-07T00:40:40;100093.88;;;-1.30;69.15
75549;BME280;64133;56.002;37.208;2023-05-07T00:45:44;100094.41;;;-1.35;69.27
75549;BME280;64133;56.002;37.208;2023-05-07T00:50:49;100092.34;;;-1.40;69.42
75549;BME280;64133;56.002;37.208;2023-05-07T00:55:54;100099.34;;;-1.45;69.59
75549;BME280;64133;56.002;37.208;2023-05-07T01:00:59;100101.23;;;-1.52;69.80
75549;BME280;64133;56.002;37.208;2023-05-07T01:06:03;100101.73;;;-1.55;70.00
75549;BME280;64133;56.002;37.208;2023-05-07T01:11:08;100099.70;;;-1.62;70.21
75549;BME280;64133;56.002;37.208;2023-05-07T01:16:13;100103.70;;;-1.68;70.50
75549;BME280;64133;56.002;37.208;2023-05-07T01:21:17;100097.80;;;-1.74;70.68
75549;BME280;64133;56.002;37.208;2023-05-07T01:26:22;100103.84;;;-1.74;70.92
75549;BME280;64133;56.002;37.208;2023-05-07T01:31:27;100102.95;;;-1.73;70.98
75549;BME280;64133;56.002;37.208;2023-05-07T01:36:31;100109.81;;;-1.72;71.17
75549;BME280;64133;56.002;37.208;2023-05-07T01:46:50;100115.58;;;-1.59;71.27
75549;BME280;64133;56.002;37.208;2023-05-07T01:51:54;100118.22;;;-1.62;71.26
75549;BME280;64133;56.002;37.208;2023-05-07T01:56:59;100124.67;;;-1.62;71.31
75549;BME280;64133;56.002;37.208;2023-05-07T02:02:04;100137.45;;;-1.55;71.21
75549;BME280;64133;56.002;37.208;2023-05-07T02:07:11;100141.87;;;-1.61;71.26
75549;BME280;64133;56.002;37.208;2023-05-07T02:12:16;100145.99;;;-1.51;71.24
75549;BME280;64133;56.002;37.208;2023-05-07T02:17:20;100151.51;;;-1.47;71.12
75549;BME280;64133;56.002;37.208;2023-05-07T02:22:25;100156.58;;;-1.42;71.04
75549;BME280;64133;56.002;37.208;2023-05-07T02:27:30;100154.20;;;-1.31;70.92
75549;BME280;64133;56.002;37.208;2023-05-07T02:32:34;100169.12;;;-1.24;70.74
75549;BME280;64133;56.002;37.208;2023-05-07T02:37:39;100165.39;;;-1.11;70.63
75549;BME280;64133;56.002;37.208;2023-05-07T02:42:43;100173.73;;;-0.98;70.39
75549;BME280;64133;56.002;37.208;2023-05-07T02:47:48;100179.95;;;-0.87;70.06
75549;BME280;64133;56.002;37.208;2023-05-07T02:52:53;100174.84;;;-0.69;69.62
75549;BME280;64133;56.002;37.208;2023-05-07T02:57:57;100173.45;;;-0.47;69.31
75549;BME280;64133;56.002;37.208;2023-05-07T03:03:02;100179.75;;;-0.23;68.71
75549;BME280;64133;56.002;37.208;2023-05-07T03:08:07;100185.83;;;0.10;68.11
75549;BME280;64133;56.002;37.208;2023-05-07T03:13:11;100188.70;;;0.32;67.28
75549;BME280;64133;56.002;37.208;2023-05-07T03:18:16;100193.50;;;0.62;66.98
75549;BME280;64133;56.002;37.208;2023-05-07T03:23:21;100193.59;;;1.74;65.21
75549;BME280;64133;56.002;37.208;2023-05-07T03:28:25;100197.70;;;7.20;60.04
75549;BME280;64133;56.002;37.208;2023-05-07T03:33:32;100195.18;;;18.11;37.35
75549;BME280;64133;56.002;37.208;2023-05-07T03:38:35;100197.59;;;20.91;30.63
75549;BME280;64133;56.002;37.208;2023-05-07T03:43:39;100206.49;;;21.26;28.17
75549;BME280;64133;56.002;37.208;2023-05-07T03:48:44;100216.35;;;23.50;25.13
75549;BME280;64133;56.002;37.208;2023-05-07T03:53:48;100210.49;;;23.97;23.19
75549;BME280;64133;56.002;37.208;2023-05-07T03:58:53;100218.58;;;24.68;21.84
75549;BME280;64133;56.002;37.208;2023-05-07T04:03:58;100222.31;;;25.85;20.59
75549;BME280;64133;56.002;37.208;2023-05-07T04:09:03;100226.08;;;25.73;19.77
75549;BME280;64133;56.002;37.208;2023-05-07T04:14:07;100228.45;;;25.35;20.02
75549;BME280;64133;56.002;37.208;2023-05-07T04:19:12;100232.54;;;27.44;18.30
75549;BME280;64133;56.002;37.208;2023-05-07T04:24:17;100238.70;;;28.03;17.32
75549;BME280;64133;56.002;37.208;2023-05-07T04:29:21;100240.49;;;28.81;16.35
75549;BME280;64133;56.002;37.208;2023-05-07T04:34:26;100245.66;;;27.41;16.57
75549;BME280;64133;56.002;37.208;2023-05-07T04:39:30;100239.65;;;29.34;15.23
75549;BME280;64133;56.002;37.208;2023-05-07T04:44:35;100252.56;;;28.20;15.63
75549;BME280;64133;56.002;37.208;2023-05-07T04:49:40;100253.38;;;29.20;14.87
75549;BME280;64133;56.002;37.208;2023-05-07T04:54:45;100255.58;;;29.39;14.51
75549;BME280;64133;56.002;37.208;2023-05-07T04:59:49;100258.36;;;31.33;13.16
75549;BME280;64133;56.002;37.208;2023-05-07T05:04:54;100254.23;;;30.95;12.98
75549;BME280;64133;56.002;37.208;2023-05-07T05:09:59;100258.23;;;31.16;12.90
75549;BME280;64133;56.002;37.208;2023-05-07T05:15:04;100260.92;;;31.13;12.43
75549;BME280;64133;56.002;37.208;2023-05-07T05:20:09;100254.34;;;29.17;12.97
75549;BME280;64133;56.002;37.208;2023-05-07T05:25:14;100262.19;;;32.99;11.12
75549;BME280;64133;56.002;37.208;2023-05-07T05:30:19;100263.55;;;34.09;10.22
75549;BME280;64133;56.002;37.208;2023-05-07T05:35:24;100269.94;;;35.26;9.43
75549;BME280;64133;56.002;37.208;2023-05-07T05:40:28;100265.25;;;37.17;8.31
75549;BME280;64133;56.002;37.208;2023-05-07T05:45:33;100273.08;;;34.01;9.25
75549;BME280;64133;56.002;37.208;2023-05-07T05:50:38;100265.22;;;31.23;10.62
75549;BME280;64133;56.002;37.208;2023-05-07T05:55:42;100268.67;;;33.34;8.99
75549;BME280;64133;56.002;37.208;2023-05-07T06:00:50;100271.33;;;22.50;13.27
75549;BME280;64133;56.002;37.208;2023-05-07T06:05:55;100274.84;;;15.93;18.89
75549;BME280;64133;56.002;37.208;2023-05-07T06:11:00;100274.66;;;28.64;10.21
75549;BME280;64133;56.002;37.208;2023-05-07T06:16:06;100281.02;;;32.47;8.51
75549;BME280;64133;56.002;37.208;2023-05-07T06:21:11;100285.99;;;32.05;8.29
75549;BME280;64133;56.002;37.208;2023-05-07T06:26:15;100280.97;;;24.93;10.93
75549;BME280;64133;56.002;37.208;2023-05-07T06:31:20;100281.11;;;16.17;16.66
75549;BME280;64133;56.002;37.208;2023-05-07T06:36:25;100272.97;;;31.41;8.70
75549;BME280;64133;56.002;37.208;2023-05-07T06:41:29;100277.36;;;21.20;12.56
75549;BME280;64133;56.002;37.208;2023-05-07T06:46:34;100274.02;;;29.86;8.73
75549;BME280;64133;56.002;37.208;2023-05-07T06:51:39;100280.14;;;35.36;6.88
75549;BME280;64133;56.002;37.208;2023-05-07T06:56:43;100290.77;;;24.08;10.57
75549;BME280;64133;56.002;37.208;2023-05-07T07:01:48;100296.28;;;17.49;14.62
75549;BME280;64133;56.002;37.208;2023-05-07T07:06:54;100300.69;;;14.42;17.04
75549;BME280;64133;56.002;37.208;2023-05-07T07:11:58;100278.92;;;25.89;11.63
75549;BME280;64133;56.002;37.208;2023-05-07T07:17:03;100277.31;;;34.16;7.18
75549;BME280;64133;56.002;37.208;2023-05-07T07:22:07;100285.18;;;28.22;8.89
75549;BME280;64133;56.002;37.208;2023-05-07T07:27:12;100282.12;;;28.94;8.68
75549;BME280;64133;56.002;37.208;2023-05-07T07:32:17;100291.25;;;25.39;10.98
75549;BME280;64133;56.002;37.208;2023-05-07T07:37:21;100288.67;;;27.40;8.91
75549;BME280;64133;56.002;37.208;2023-05-07T07:42:26;100280.60;;;22.86;12.05
75549;BME280;64133;56.002;37.208;2023-05-07T07:47:31;100279.56;;;33.10;7.10
75549;BME280;64133;56.002;37.208;2023-05-07T07:52:35;100273.08;;;33.16;6.75
75549;BME280;64133;56.002;37.208;2023-05-07T07:57:40;100269.80;;;34.31;6.15
75549;BME280;64133;56.002;37.208;2023-05-07T08:02:44;100265.45;;;32.00;6.59
75549;BME280;64133;56.002;37.208;2023-05-07T08:07:49;100272.41;;;20.31;11.49
75549;BME280;64133;56.002;37.208;2023-05-07T08:12:54;100267.70;;;17.78;13.14
75549;BME280;64133;56.002;37.208;2023-05-07T08:17:59;100274.06;;;14.38;16.00
75549;BME280;64133;56.002;37.208;2023-05-07T08:23:04;100261.06;;;15.93;15.38
75549;BME280;64133;56.002;37.208;2023-05-07T08:28:09;100250.85;;;22.87;11.56
75549;BME280;64133;56.002;37.208;2023-05-07T08:33:14;100257.59;;;28.00;8.54
75549;BME280;64133;56.002;37.208;2023-05-07T08:38:19;100267.03;;;18.48;12.16
75549;BME280;64133;56.002;37.208;2023-05-07T08:43:24;100263.30;;;15.88;14.21
75549;BME280;64133;56.002;37.208;2023-05-07T08:48:29;100269.36;;;13.15;16.67
75549;BME280;64133;56.002;37.208;2023-05-07T08:53:39;100267.60;;;14.57;16.05
75549;BME280;64133;56.002;37.208;2023-05-07T08:58:44;100257.87;;;16.09;15.38
75549;BME280;64133;56.002;37.208;2023-05-07T09:03:49;100264.15;;;14.51;16.30
75549;BME280;64133;56.002;37.208;2023-05-07T09:08:54;100263.55;;;12.88;17.53
75549;BME280;64133;56.002;37.208;2023-05-07T09:13:58;100260.72;;;14.60;17.18
75549;BME280;64133;56.002;37.208;2023-05-07T09:19:04;100255.35;;;16.99;15.54
75549;BME280;64133;56.002;37.208;2023-05-07T09:24:08;100254.24;;;17.70;14.79
75549;BME280;64133;56.002;37.208;2023-05-07T09:29:15;100256.27;;;13.96;16.50
75549;BME280;64133;56.002;37.208;2023-05-07T09:34:18;100250.28;;;13.83;17.12
75549;BME280;64133;56.002;37.208;2023-05-07T09:39:22;100254.75;;;13.82;17.29
75549;BME280;64133;56.002;37.208;2023-05-07T09:44:27;100246.72;;;14.37;16.89
75549;BME280;64133;56.002;37.208;2023-05-07T09:49:33;100242.30;;;13.40;17.91
75549;BME280;64133;56.002;37.208;2023-05-07T09:54:37;100238.82;;;14.73;17.31
75549;BME280;64133;56.002;37.208;2023-05-07T09:59:43;100244.21;;;13.49;17.87
75549;BME280;64133;56.002;37.208;2023-05-07T10:04:47;100252.70;;;12.63;18.91
75549;BME280;64133;56.002;37.208;2023-05-07T10:09:52;100253.98;;;12.11;19.24
75549;BME280;64133;56.002;37.208;2023-05-07T10:14:57;100253.20;;;11.66;19.55
75549;BME280;64133;56.002;37.208;2023-05-07T10:20:02;100248.17;;;13.09;19.15
75549;BME280;64133;56.002;37.208;2023-05-07T10:25:13;100239.25;;;16.48;16.27
75549;BME280;64133;56.002;37.208;2023-05-07T10:30:20;100242.23;;;14.17;17.23
75549;BME280;64133;56.002;37.208;2023-05-07T10:35:25;100255.83;;;10.73;20.55
75549;BME280;64133;56.002;37.208;2023-05-07T10:40:30;100254.81;;;11.74;20.42
75549;BME280;64133;56.002;37.208;2023-05-07T10:45:44;100250.68;;;12.83;19.75
75549;BME280;64133;56.002;37.208;2023-05-07T10:56:30;100253.70;;;14.38;18.58
75549;BME280;64133;56.002;37.208;2023-05-07T11:01:55;100246.27;;;15.25;17.75
75549;BME280;64133;56.002;37.208;2023-05-07T11:07:40;100248.24;;;14.51;17.32
75549;BME280;64133;56.002;37.208;2023-05-07T11:12:53;100248.56;;;13.11;18.94
75549;BME280;64133;56.002;37.208;2023-05-07T11:17:58;100242.09;;;12.57;19.96
75549;BME280;64133;56.002;37.208;2023-05-07T11:23:02;100248.27;;;12.69;19.94
75549;BME280;64133;56.002;37.208;2023-05-07T11:28:07;100253.28;;;11.77;20.52
75549;BME280;64133;56.002;37.208;2023-05-07T11:33:13;100256.27;;;11.54;21.11
75549;BME280;64133;56.002;37.208;2023-05-07T11:38:18;100252.28;;;11.86;21.37
75549;BME280;64133;56.002;37.208;2023-05-07T11:43:23;100251.48;;;11.78;21.47
75549;BME280;64133;56.002;37.208;2023-05-07T11:48:27;100244.08;;;13.05;20.76
75549;BME280;64133;56.002;37.208;2023-05-07T11:53:37;100242.77;;;12.94;20.34
75549;BME280;64133;56.002;37.208;2023-05-07T11:58:42;100239.39;;;12.81;20.28
75549;BME280;64133;56.002;37.208;2023-05-07T12:03:46;100238.35;;;12.48;20.26
75549;BME280;64133;56.002;37.208;2023-05-07T12:08:51;100232.12;;;13.78;19.19
75549;BME280;64133;56.002;37.208;2023-05-07T12:13:56;100233.52;;;13.17;19.40
75549;BME280;64133;56.002;37.208;2023-05-07T12:19:00;100238.00;;;12.47;20.07
75549;BME280;64133;56.002;37.208;2023-05-07T12:24:06;100233.03;;;13.17;20.03
75549;BME280;64133;56.002;37.208;2023-05-07T12:29:11;100232.21;;;13.22;19.57
75549;BME280;64133;56.002;37.208;2023-05-07T12:34:15;100225.48;;;12.03;20.40
75549;BME280;64133;56.002;37.208;2023-05-07T12:39:20;100229.54;;;12.01;20.39
75549;BME280;64133;56.002;37.208;2023-05-07T12:44:25;100235.22;;;11.47;20.95
75549;BME280;64133;56.002;37.208;2023-05-07T12:49:29;100229.77;;;11.56;21.16
75549;BME280;64133;56.002;37.208;2023-05-07T12:54:35;100219.87;;;11.47;21.20
75549;BME280;64133;56.002;37.208;2023-05-07T12:59:39;100221.34;;;12.23;20.67
75549;BME280;64133;56.002;37.208;2023-05-07T13:04:44;100218.60;;;12.24;20.32
75549;BME280;64133;56.002;37.208;2023-05-07T13:09:48;100216.78;;;11.53;20.86
75549;BME280;64133;56.002;37.208;2023-05-07T13:14:53;100214.80;;;11.80;20.99
75549;BME280;64133;56.002;37.208;2023-05-07T13:19:58;100220.50;;;11.74;20.61
75549;BME280;64133;56.002;37.208;2023-05-07T13:25:02;100217.88;;;11.56;20.75
75549;BME280;64133;56.002;37.208;2023-05-07T13:30:08;100216.80;;;12.99;20.05
75549;BME280;64133;56.002;37.208;2023-05-07T13:35:13;100224.63;;;13.35;19.62
75549;BME280;64133;56.002;37.208;2023-05-07T13:40:23;100221.52;;;12.38;20.00
75549;BME280;64133;56.002;37.208;2023-05-07T13:45:31;100227.30;;;11.84;20.56
75549;BME280;64133;56.002;37.208;2023-05-07T13:50:35;100223.41;;;11.22;21.04
75549;BME280;64133;56.002;37.208;2023-05-07T13:55:40;100228.31;;;10.90;21.46
75549;BME280;64133;56.002;37.208;2023-05-07T14:00:45;100225.83;;;11.06;21.59
75549;BME280;64133;56.002;37.208;2023-05-07T14:05:49;100231.86;;;11.64;21.18
75549;BME280;64133;56.002;37.208;2023-05-07T14:10:54;100232.09;;;11.66;20.90
75549;BME280;64133;56.002;37.208;2023-05-07T14:15:59;100240.16;;;10.64;21.87
75549;BME280;64133;56.002;37.208;2023-05-07T14:21:04;100236.20;;;10.31;22.29
75549;BME280;64133;56.002;37.208;2023-05-07T14:26:08;100221.05;;;10.35;22.56
75549;BME280;64133;56.002;37.208;2023-05-07T14:31:13;100228.47;;;10.36;22.31
75549;BME280;64133;56.002;37.208;2023-05-07T14:36:18;100230.38;;;10.34;22.57
75549;BME280;64133;56.002;37.208;2023-05-07T14:41:24;100231.83;;;10.45;22.70
75549;BME280;64133;56.002;37.208;2023-05-07T14:46:28;100221.59;;;10.53;22.67
75549;BME280;64133;56.002;37.208;2023-05-07T14:51:33;100218.33;;;10.62;22.45
75549;BME280;64133;56.002;37.208;2023-05-07T14:56:38;100223.34;;;11.11;22.24
75549;BME280;64133;56.002;37.208;2023-05-07T15:01:43;100224.94;;;11.50;21.89
75549;BME280;64133;56.002;37.208;2023-05-07T15:06:47;100228.47;;;10.81;22.16
75549;BME280;64133;56.002;37.208;2023-05-07T15:11:52;100230.67;;;10.74;22.33
75549;BME280;64133;56.002;37.208;2023-05-07T15:16:57;100237.02;;;10.39;22.61
75549;BME280;64133;56.002;37.208;2023-05-07T15:22:01;100231.75;;;10.19;22.92
75549;BME280;64133;56.002;37.208;2023-05-07T15:27:06;100230.72;;;9.95;22.99
75549;BME280;64133;56.002;37.208;2023-05-07T15:32:11;100234.86;;;9.92;23.30
75549;BME280;64133;56.002;37.208;2023-05-07T15:37:16;100238.81;;;9.92;23.46
75549;BME280;64133;56.002;37.208;2023-05-07T15:42:21;100249.22;;;9.73;23.82
75549;BME280;64133;56.002;37.208;2023-05-07T15:47:25;100250.03;;;9.54;24.59
75549;BME280;64133;56.002;37.208;2023-05-07T15:52:30;100255.40;;;9.45;25.30
75549;BME280;64133;56.002;37.208;2023-05-07T15:57:35;100260.44;;;9.63;25.37
75549;BME280;64133;56.002;37.208;2023-05-07T16:02:40;100261.20;;;9.43;25.42
75549;BME280;64133;56.002;37.208;2023-05-07T16:07:45;100255.95;;;9.43;25.91
75549;BME280;64133;56.002;37.208;2023-05-07T16:12:50;100260.19;;;9.46;25.53
75549;BME280;64133;56.002;37.208;2023-05-07T16:17:57;100252.03;;;9.36;25.60
75549;BME280;64133;56.002;37.208;2023-05-07T16:23:02;100254.00;;;9.18;25.50
75549;BME280;64133;56.002;37.208;2023-05-07T16:28:07;100253.44;;;8.92;25.86
75549;BME280;64133;56.002;37.208;2023-05-07T16:33:11;100255.05;;;8.94;26.14
75549;BME280;64133;56.002;37.208;2023-05-07T16:38:16;100263.95;;;8.92;26.24
75549;BME280;64133;56.002;37.208;2023-05-07T16:43:21;100259.06;;;8.71;26.64
75549;BME280;64133;56.002;37.208;2023-05-07T16:48:25;100271.68;;;8.50;27.05
75549;BME280;64133;56.002;37.208;2023-05-07T16:53:30;100278.52;;;8.30;27.59
75549;BME280;64133;56.002;37.208;2023-05-07T16:58:35;100281.16;;;7.91;28.76
75549;BME280;64133;56.002;37.208;2023-05-07T17:03:39;100287.83;;;7.58;29.42
75549;BME280;64133;56.002;37.208;2023-05-07T17:08:44;100291.33;;;7.25;30.03
75549;BME280;64133;56.002;37.208;2023-05-07T17:13:48;100295.45;;;7.05;30.61
75549;BME280;64133;56.002;37.208;2023-05-07T17:18:53;100293.42;;;6.86;31.36
75549;BME280;64133;56.002;37.208;2023-05-07T17:23:58;100297.22;;;6.71;31.92
75549;BME280;64133;56.002;37.208;2023-05-07T17:29:03;100297.45;;;6.49;32.21
75549;BME280;64133;56.002;37.208;2023-05-07T17:34:08;100306.05;;;6.34;32.80
75549;BME280;64133;56.002;37.208;2023-05-07T17:39:14;100304.23;;;6.09;33.25
75549;BME280;64133;56.002;37.208;2023-05-07T17:44:18;100307.25;;;5.91;33.84
75549;BME280;64133;56.002;37.208;2023-05-07T17:49:23;100310.44;;;5.78;34.19
75549;BME280;64133;56.002;37.208;2023-05-07T17:54:28;100311.92;;;5.65;34.58
75549;BME280;64133;56.002;37.208;2023-05-07T17:59:33;100312.65;;;5.50;35.04
75549;BME280;64133;56.002;37.208;2023-05-07T18:04:37;100316.58;;;5.40;35.34
75549;BME280;64133;56.002;37.208;2023-05-07T18:09:42;100320.86;;;5.32;35.90
75549;BME280;64133;56.002;37.208;2023-05-07T18:14:47;100322.30;;;5.29;36.29
75549;BME280;64133;56.002;37.208;2023-05-07T18:19:52;100323.00;;;5.14;36.65
75549;BME280;64133;56.002;37.208;2023-05-07T18:24:56;100332.13;;;5.03;37.14
75549;BME280;64133;56.002;37.208;2023-05-07T18:30:01;100329.33;;;4.98;37.57
75549;BME280;64133;56.002;37.208;2023-05-07T18:35:08;100337.23;;;4.86;38.11
75549;BME280;64133;56.002;37.208;2023-05-07T18:40:14;100339.65;;;4.81;38.31
75549;BME280;64133;56.002;37.208;2023-05-07T18:45:20;100336.97;;;4.72;38.92
75549;BME280;64133;56.002;37.208;2023-05-07T18:50:25;100340.02;;;4.61;39.33
75549;BME280;64133;56.002;37.208;2023-05-07T18:55:29;100349.22;;;4.49;39.80
75549;BME280;64133;56.002;37.208;2023-05-07T19:00:34;100349.14;;;4.41;40.12
75549;BME280;64133;56.002;37.208;2023-05-07T19:05:39;100349.52;;;4.32;40.50
75549;BME280;64133;56.002;37.208;2023-05-07T19:10:44;100341.33;;;4.19;41.04
75549;BME280;64133;56.002;37.208;2023-05-07T19:15:49;100345.27;;;4.07;41.41
75549;BME280;64133;56.002;37.208;2023-05-07T19:20:53;100348.97;;;4.01;41.82
75549;BME280;64133;56.002;37.208;2023-05-07T19:25:58;100348.48;;;3.92;42.28
75549;BME280;64133;56.002;37.208;2023-05-07T19:31:03;100332.36;;;3.70;42.66
75549;BME280;64133;56.002;37.208;2023-05-07T19:36:08;100359.09;;;3.75;43.10
75549;BME280;64133;56.002;37.208;2023-05-07T19:41:12;100357.97;;;3.71;43.52
75549;BME280;64133;56.002;37.208;2023-05-07T19:46:17;100368.03;;;3.57;44.01
75549;BME280;64133;56.002;37.208;2023-05-07T19:51:22;100375.23;;;3.50;44.51
75549;BME280;64133;56.002;37.208;2023-05-07T19:56:26;100370.75;;;3.42;44.90
75549;BME280;64133;56.002;37.208;2023-05-07T20:01:31;100375.45;;;3.32;45.48
75549;BME280;64133;56.002;37.208;2023-05-07T20:06:36;100380.83;;;3.27;46.09
75549;BME280;64133;56.002;37.208;2023-05-07T20:11:40;100386.13;;;3.24;46.15
75549;BME280;64133;56.002;37.208;2023-05-07T20:16:45;100382.26;;;3.11;46.66
75549;BME280;64133;56.002;37.208;2023-05-07T20:21:50;100387.48;;;2.98;47.10
75549;BME280;64133;56.002;37.208;2023-05-07T20:26:54;100388.20;;;2.90;47.52
75549;BME280;64133;56.002;37.208;2023-05-07T20:31:59;100392.34;;;2.82;47.88
75549;BME280;64133;56.002;37.208;2023-05-07T20:37:04;100397.31;;;2.76;48.26
75549;BME280;64133;56.002;37.208;2023-05-07T20:42:08;100399.31;;;2.68;48.54
75549;BME280;64133;56.002;37.208;2023-05-07T20:47:13;100412.39;;;2.67;48.60
75549;BME280;64133;56.002;37.208;2023-05-07T20:52:18;100410.02;;;2.59;48.77
75549;BME280;64133;56.002;37.208;2023-05-07T20:57:22;100421.09;;;2.53;49.15
75549;BME280;64133;56.002;37.208;2023-05-07T21:02:27;100427.44;;;2.44;49.47
75549;BME280;64133;56.002;37.208;2023-05-07T21:07:32;100421.81;;;2.43;49.66
75549;BME280;64133;56.002;37.208;2023-05-07T21:12:36;100424.22;;;2.36;50.01
75549;BME280;64133;56.002;37.208;2023-05-07T21:17:41;100428.83;;;2.26;50.36
75549;BME280;64133;56.002;37.208;2023-05-07T21:22:46;100425.27;;;2.15;50.91
75549;BME280;64133;56.002;37.208;2023-05-07T21:27:50;100433.37;;;2.05;51.45
75549;BME280;64133;56.002;37.208;2023-05-07T21:32:56;100434.28;;;1.89;51.91
75549;BME280;64133;56.002;37.208;2023-05-07T21:38:00;100442.94;;;1.74;52.27
75549;BME280;64133;56.002;37.208;2023-05-07T21:43:05;100451.52;;;1.62;52.78
75549;BME280;64133;56.002;37.208;2023-05-07T21:48:10;100451.97;;;1.61;52.94
75549;BME280;64133;56.002;37.208;2023-05-07T21:53:14;100455.22;;;1.53;53.25
75549;BME280;64133;56.002;37.208;2023-05-07T21:58:19;100456.77;;;1.44;53.66
75549;BME280;64133;56.002;37.208;2023-05-07T22:03:24;100461.18;;;1.40;53.96
75549;BME280;64133;56.002;37.208;2023-05-07T22:08:28;100463.84;;;1.37;54.17
75549;BME280;64133;56.002;37.208;2023-05-07T22:13:33;100462.92;;;1.40;54.16
75549;BME280;64133;56.002;37.208;2023-05-07T22:18:37;100456.56;;;1.35;54.33
75549;BME280;64133;56.002;37.208;2023-05-07T22:23:42;100471.50;;;1.25;54.82
75549;BME280;64133;56.002;37.208;2023-05-07T22:28:47;100471.22;;;1.20;55.09
75549;BME280;64133;56.002;37.208;2023-05-07T22:33:51;100465.58;;;1.20;55.16
75549;BME280;64133;56.002;37.208;2023-05-07T22:38:56;100471.55;;;1.24;55.15
75549;BME280;64133;56.002;37.208;2023-05-07T22:44:01;100475.30;;;1.12;55.43
75549;BME280;64133;56.002;37.208;2023-05-07T22:49:05;100477.39;;;0.98;55.74
75549;BME280;64133;56.002;37.208;2023-05-07T22:54:10;100467.31;;;0.86;56.19
75549;BME280;64133;56.002;37.208;2023-05-07T22:59:15;100468.21;;;0.85;56.45
75549;BME280;64133;56.002;37.208;2023-05-07T23:04:19;100468.61;;;0.86;56.50
75549;BME280;64133;56.002;37.208;2023-05-07T23:09:24;100476.22;;;0.75;56.69
75549;BME280;64133;56.002;37.208;2023-05-07T23:14:28;100477.33;;;0.65;57.13
75549;BME280;64133;56.002;37.208;2023-05-07T23:19:33;100483.89;;;0.61;57.61
75549;BME280;64133;56.002;37.208;2023-05-07T23:24:38;100480.94;;;0.58;57.82
75549;BME280;64133;56.002;37.208;2023-05-07T23:29:43;100486.12;;;0.58;57.93
75549;BME280;64133;56.002;37.208;2023-05-07T23:34:50;100480.11;;;0.56;58.14
75549;BME280;64133;56.002;37.208;2023-05-07T23:39:55;100487.93;;;0.55;58.11
75549;BME280;64133;56.002;37.208;2023-05-07T23:44:59;100481.06;;;0.52;58.09
75549;BME280;64133;56.002;37.208;2023-05-07T23:50:05;100474.67;;;0.49;58.09
75549;BME280;64133;56.002;37.208;2023-05-07T23:55:10;100473.84;;;0.47;58.06
